sensor_id;sensor_type;location;lat;lon;timestamp;pressure;altitude;pressure_sealevel;temperature;humidity
36386;BME280;24125;47.482;8.770;2023-01-25T00:00:33;97588.50;;;6.98;69.94
36386;BME280;24125;47.482;8.770;2023-01-25T00:03:06;97588.50;;;6.98;70.68
36386;BME280;24125;47.482;8.770;2023-01-25T00:05:39;97589.56;;;6.97;69.83
36386;BME280;24125;47.482;8.770;2023-01-25T00:08:12;97591.97;;;6.99;70.18
36386;BME280;24125;47.482;8.770;2023-01-25T00:10:49;97579.50;;;6.99;70.36
36386;BME280;24125;47.482;8.770;2023-01-25T00:13:24;97573.91;;;6.96;69.76
36386;BME280;24125;47.482;8.770;2023-01-25T00:16:00;97569.66;;;6.95;70.41
36386;BME280;24125;47.482;8.770;2023-01-25T00:18:33;97577.63;;;6.95;70.23
36386;BME280;24125;47.482;8.770;2023-01-25T00:21:13;97580.00;;;6.96;70.02
36386;BME280;24125;47.482;8.770;2023-01-25T00:23:47;97579.22;;;6.96;70.38
36386;BME280;24125;47.482;8.770;2023-01-25T00:26:20;97576.31;;;6.97;70.57
36386;BME280;24125;47.482;8.770;2023-01-25T00:28:55;97581.34;;;6.99;70.37
36386;BME280;24125;47.482;8.770;2023-01-25T00:31:36;97573.66;;;6.97;69.89
36386;BME280;24125;47.482;8.770;2023-01-25T00:34:42;97575.75;;;6.95;69.70
36386;BME280;24125;47.482;8.770;2023-01-25T00:37:23;97569.41;;;6.96;69.75
36386;BME280;24125;47.482;8.770;2023-01-25T00:39:56;97565.16;;;6.90;70.03
36386;BME280;24125;47.482;8.770;2023-01-25T00:42:29;97565.44;;;6.89;70.24
36386;BME280;24125;47.482;8.770;2023-01-25T00:45:06;97564.09;;;6.86;69.52
36386;BME280;24125;47.482;8.770;2023-01-25T00:47:39;97555.09;;;6.82;70.21
36386;BME280;24125;47.482;8.770;2023-01-25T00:50:12;97554.28;;;6.81;70.25
36386;BME280;24125;47.482;8.770;2023-01-25T00:52:45;97549.25;;;6.80;69.96
36386;BME280;24125;47.482;8.770;2023-01-25T00:55:18;97543.66;;;6.81;70.23
36386;BME280;24125;47.482;8.770;2023-01-25T00:57:51;97537.56;;;6.81;70.25
36386;BME280;24125;47.482;8.770;2023-01-25T01:00:25;97546.31;;;6.81;69.99
36386;BME280;24125;47.482;8.770;2023-01-25T01:02:58;97550.84;;;6.81;70.20
36386;BME280;24125;47.482;8.770;2023-01-25T01:05:31;97548.97;;;6.81;69.83
36386;BME280;24125;47.482;8.770;2023-01-25T01:08:06;97560.41;;;6.82;69.67
36386;BME280;24125;47.482;8.770;2023-01-25T01:10:39;97558.00;;;6.80;69.62
36386;BME280;24125;47.482;8.770;2023-01-25T01:13:12;97560.13;;;6.78;69.79
36386;BME280;24125;47.482;8.770;2023-01-25T01:15:47;97553.22;;;6.77;69.46
36386;BME280;24125;47.482;8.770;2023-01-25T01:18:20;97554.28;;;6.76;70.37
36386;BME280;24125;47.482;8.770;2023-01-25T01:20:53;97547.38;;;6.75;69.67
36386;BME280;24125;47.482;8.770;2023-01-25T01:23:27;97548.47;;;6.74;70.33
36386;BME280;24125;47.482;8.770;2023-01-25T01:26:00;97554.84;;;6.73;70.22
36386;BME280;24125;47.482;8.770;2023-01-25T01:28:34;97551.13;;;6.74;70.20
36386;BME280;24125;47.482;8.770;2023-01-25T01:31:13;97555.88;;;6.72;70.29
36386;BME280;24125;47.482;8.770;2023-01-25T01:33:48;97559.34;;;6.73;69.66
36386;BME280;24125;47.482;8.770;2023-01-25T01:36:23;97558.81;;;6.71;70.11
36386;BME280;24125;47.482;8.770;2023-01-25T01:38:57;97564.91;;;6.71;70.61
36386;BME280;24125;47.482;8.770;2023-01-25T01:41:30;97556.41;;;6.69;70.15
36386;BME280;24125;47.482;8.770;2023-01-25T01:44:03;97553.50;;;6.71;69.75
36386;BME280;24125;47.482;8.770;2023-01-25T01:46:38;97553.22;;;6.72;70.03
36386;BME280;24125;47.482;8.770;2023-01-25T01:49:15;97552.19;;;6.73;69.63
36386;BME280;24125;47.482;8.770;2023-01-25T01:51:52;97557.75;;;6.72;70.14
36386;BME280;24125;47.482;8.770;2023-01-25T01:54:30;97555.88;;;6.72;70.69
36386;BME280;24125;47.482;8.770;2023-01-25T01:57:08;97546.06;;;6.73;70.49
36386;BME280;24125;47.482;8.770;2023-01-25T01:59:44;97539.16;;;6.72;70.16
36386;BME280;24125;47.482;8.770;2023-01-25T02:02:21;97537.56;;;6.71;70.40
36386;BME280;24125;47.482;8.770;2023-01-25T02:04:58;97543.41;;;6.73;70.21
36386;BME280;24125;47.482;8.770;2023-01-25T02:07:34;97542.88;;;6.71;70.08
36386;BME280;24125;47.482;8.770;2023-01-25T02:10:10;97542.09;;;6.70;70.28
36386;BME280;24125;47.482;8.770;2023-01-25T02:12:44;97534.91;;;6.71;70.10
36386;BME280;24125;47.482;8.770;2023-01-25T02:15:17;97534.38;;;6.69;70.47
36386;BME280;24125;47.482;8.770;2023-01-25T02:17:51;97541.81;;;6.72;70.27
36386;BME280;24125;47.482;8.770;2023-01-25T02:20:35;97543.91;;;6.75;70.38
36386;BME280;24125;47.482;8.770;2023-01-25T02:23:11;97538.91;;;6.73;70.70
36386;BME280;24125;47.482;8.770;2023-01-25T02:25:49;97543.16;;;6.74;70.86
36386;BME280;24125;47.482;8.770;2023-01-25T02:28:25;97541.28;;;6.75;70.61
36386;BME280;24125;47.482;8.770;2023-01-25T02:30:59;97526.44;;;6.74;70.36
36386;BME280;24125;47.482;8.770;2023-01-25T02:33:33;97532.25;;;6.76;70.36
36386;BME280;24125;47.482;8.770;2023-01-25T02:36:19;97527.47;;;6.78;69.94
36386;BME280;24125;47.482;8.770;2023-01-25T02:38:55;97517.91;;;6.77;70.87
36386;BME280;24125;47.482;8.770;2023-01-25T02:41:32;97523.22;;;6.82;70.40
36386;BME280;24125;47.482;8.770;2023-01-25T02:44:08;97524.03;;;6.82;70.89
36386;BME280;24125;47.482;8.770;2023-01-25T02:46:43;97519.22;;;6.85;70.80
36386;BME280;24125;47.482;8.770;2023-01-25T02:49:17;97518.44;;;6.84;70.38
36386;BME280;24125;47.482;8.770;2023-01-25T02:51:52;97520.56;;;6.87;70.41
36386;BME280;24125;47.482;8.770;2023-01-25T02:54:28;97521.34;;;6.88;70.51
36386;BME280;24125;47.482;8.770;2023-01-25T02:57:02;97513.38;;;6.88;69.97
36386;BME280;24125;47.482;8.770;2023-01-25T02:59:35;97510.75;;;6.88;70.46
36386;BME280;24125;47.482;8.770;2023-01-25T03:02:08;97512.59;;;6.87;70.38
36386;BME280;24125;47.482;8.770;2023-01-25T03:04:41;97518.44;;;6.89;70.98
36386;BME280;24125;47.482;8.770;2023-01-25T03:07:14;97509.69;;;6.89;69.93
36386;BME280;24125;47.482;8.770;2023-01-25T03:09:47;97504.09;;;6.90;70.08
36386;BME280;24125;47.482;8.770;2023-01-25T03:12:21;97500.66;;;6.90;70.34
36386;BME280;24125;47.482;8.770;2023-01-25T03:14:55;97501.19;;;6.92;70.91
36386;BME280;24125;47.482;8.770;2023-01-25T03:17:28;97503.03;;;6.91;70.25
36386;BME280;24125;47.482;8.770;2023-01-25T03:20:01;97501.94;;;6.92;69.90
36386;BME280;24125;47.482;8.770;2023-01-25T03:22:36;97496.94;;;6.91;69.86
36386;BME280;24125;47.482;8.770;2023-01-25T03:25:09;97496.13;;;6.90;70.50
36386;BME280;24125;47.482;8.770;2023-01-25T03:27:44;97492.44;;;6.91;69.83
36386;BME280;24125;47.482;8.770;2023-01-25T03:30:17;97491.88;;;6.89;70.30
36386;BME280;24125;47.482;8.770;2023-01-25T03:32:50;97498.25;;;6.88;70.02
36386;BME280;24125;47.482;8.770;2023-01-25T03:35:23;97489.75;;;6.86;70.53
36386;BME280;24125;47.482;8.770;2023-01-25T03:37:56;97488.16;;;6.85;70.21
36386;BME280;24125;47.482;8.770;2023-01-25T03:40:29;97487.38;;;6.85;70.14
36386;BME280;24125;47.482;8.770;2023-01-25T03:43:03;97472.81;;;6.82;69.86
36386;BME280;24125;47.482;8.770;2023-01-25T03:45:36;97473.59;;;6.82;69.80
36386;BME280;24125;47.482;8.770;2023-01-25T03:48:09;97467.75;;;6.80;70.38
36386;BME280;24125;47.482;8.770;2023-01-25T03:50:43;97470.41;;;6.80;70.48
36386;BME280;24125;47.482;8.770;2023-01-25T03:53:20;97478.63;;;6.79;70.05
36386;BME280;24125;47.482;8.770;2023-01-25T03:56:01;97478.09;;;6.82;70.46
36386;BME280;24125;47.482;8.770;2023-01-25T03:58:37;97469.09;;;6.83;70.29
36386;BME280;24125;47.482;8.770;2023-01-25T04:01:10;97467.50;;;6.82;70.54
36386;BME280;24125;47.482;8.770;2023-01-25T04:03:43;97468.56;;;6.81;69.69
36386;BME280;24125;47.482;8.770;2023-01-25T04:06:16;97466.69;;;6.81;69.81
36386;BME280;24125;47.482;8.770;2023-01-25T04:08:49;97467.50;;;6.82;70.34
36386;BME280;24125;47.482;8.770;2023-01-25T04:11:22;97456.34;;;6.80;70.12
36386;BME280;24125;47.482;8.770;2023-01-25T04:13:56;97464.03;;;6.81;70.26
36386;BME280;24125;47.482;8.770;2023-01-25T04:16:29;97463.50;;;6.79;69.97
36386;BME280;24125;47.482;8.770;2023-01-25T04:19:02;97466.97;;;6.80;70.24
36386;BME280;24125;47.482;8.770;2023-01-25T04:21:35;97465.91;;;6.81;69.92
36386;BME280;24125;47.482;8.770;2023-01-25T04:24:08;97457.13;;;6.80;69.75
36386;BME280;24125;47.482;8.770;2023-01-25T04:26:41;97464.31;;;6.80;69.58
36386;BME280;24125;47.482;8.770;2023-01-25T04:29:15;97464.31;;;6.80;69.89
36386;BME280;24125;47.482;8.770;2023-01-25T04:31:49;97447.84;;;6.78;69.60
36386;BME280;24125;47.482;8.770;2023-01-25T04:34:22;97455.81;;;6.78;69.87
36386;BME280;24125;47.482;8.770;2023-01-25T04:36:55;97456.88;;;6.77;70.38
36386;BME280;24125;47.482;8.770;2023-01-25T04:39:28;97450.25;;;6.74;69.83
36386;BME280;24125;47.482;8.770;2023-01-25T04:42:01;97451.81;;;6.75;69.85
36386;BME280;24125;47.482;8.770;2023-01-25T04:44:35;97454.75;;;6.79;69.82
36386;BME280;24125;47.482;8.770;2023-01-25T04:47:08;97452.34;;;6.77;69.79
36386;BME280;24125;47.482;8.770;2023-01-25T04:49:41;97452.09;;;6.79;70.10
36386;BME280;24125;47.482;8.770;2023-01-25T04:52:14;97451.81;;;6.80;70.31
36386;BME280;24125;47.482;8.770;2023-01-25T04:54:47;97451.03;;;6.80;69.71
36386;BME280;24125;47.482;8.770;2023-01-25T04:57:20;97456.06;;;6.76;70.14
36386;BME280;24125;47.482;8.770;2023-01-25T04:59:54;97453.97;;;6.73;69.48
36386;BME280;24125;47.482;8.770;2023-01-25T05:02:27;97448.41;;;6.70;69.83
36386;BME280;24125;47.482;8.770;2023-01-25T05:05:00;97448.41;;;6.70;69.79
36386;BME280;24125;47.482;8.770;2023-01-25T05:07:33;97446.81;;;6.69;70.27
36386;BME280;24125;47.482;8.770;2023-01-25T05:10:07;97445.22;;;6.68;69.79
36386;BME280;24125;47.482;8.770;2023-01-25T05:12:41;97443.63;;;6.67;69.96
36386;BME280;24125;47.482;8.770;2023-01-25T05:15:15;97452.66;;;6.66;69.85
36386;BME280;24125;47.482;8.770;2023-01-25T05:17:48;97442.03;;;6.61;69.70
36386;BME280;24125;47.482;8.770;2023-01-25T05:20:21;97443.09;;;6.60;70.29
36386;BME280;24125;47.482;8.770;2023-01-25T05:22:54;97436.50;;;6.57;69.71
36386;BME280;24125;47.482;8.770;2023-01-25T05:25:26;97437.56;;;6.56;69.86
36386;BME280;24125;47.482;8.770;2023-01-25T05:28:17;97442.88;;;6.56;70.38
36386;BME280;24125;47.482;8.770;2023-01-25T05:30:51;97437.81;;;6.55;71.00
36386;BME280;24125;47.482;8.770;2023-01-25T05:33:24;97451.34;;;6.53;69.84
36386;BME280;24125;47.482;8.770;2023-01-25T05:35:57;97448.69;;;6.53;70.42
36386;BME280;24125;47.482;8.770;2023-01-25T05:38:30;97448.16;;;6.51;70.09
36386;BME280;24125;47.482;8.770;2023-01-25T05:41:03;97445.78;;;6.50;70.68
36386;BME280;24125;47.482;8.770;2023-01-25T05:43:36;97442.31;;;6.49;70.45
36386;BME280;24125;47.482;8.770;2023-01-25T05:46:10;97442.63;;;6.48;70.49
36386;BME280;24125;47.482;8.770;2023-01-25T05:48:46;97435.72;;;6.47;70.05
36386;BME280;24125;47.482;8.770;2023-01-25T05:51:19;97442.34;;;6.44;70.02
36386;BME280;24125;47.482;8.770;2023-01-25T05:53:53;97440.47;;;6.44;70.55
36386;BME280;24125;47.482;8.770;2023-01-25T05:56:26;97435.69;;;6.41;70.83
36386;BME280;24125;47.482;8.770;2023-01-25T05:59:00;97440.22;;;6.41;70.57
36386;BME280;24125;47.482;8.770;2023-01-25T06:01:34;97441.00;;;6.41;70.83
36386;BME280;24125;47.482;8.770;2023-01-25T06:04:08;97434.91;;;6.41;70.56
36386;BME280;24125;47.482;8.770;2023-01-25T06:06:42;97437.31;;;6.37;70.51
36386;BME280;24125;47.482;8.770;2023-01-25T06:09:15;97442.09;;;6.35;70.69
36386;BME280;24125;47.482;8.770;2023-01-25T06:11:48;97436.25;;;6.33;70.66
36386;BME280;24125;47.482;8.770;2023-01-25T06:14:21;97433.34;;;6.30;70.78
36386;BME280;24125;47.482;8.770;2023-01-25T06:16:56;97436.00;;;6.30;70.52
36386;BME280;24125;47.482;8.770;2023-01-25T06:19:28;97437.84;;;6.29;70.40
36386;BME280;24125;47.482;8.770;2023-01-25T06:22:01;97441.56;;;6.28;70.91
36386;BME280;24125;47.482;8.770;2023-01-25T06:24:34;97437.06;;;6.29;70.80
36386;BME280;24125;47.482;8.770;2023-01-25T06:27:07;97435.47;;;6.28;70.80
36386;BME280;24125;47.482;8.770;2023-01-25T06:29:41;97434.66;;;6.27;71.16
36386;BME280;24125;47.482;8.770;2023-01-25T06:32:15;97431.75;;;6.29;70.93
36386;BME280;24125;47.482;8.770;2023-01-25T06:34:48;97427.78;;;6.26;70.77
36386;BME280;24125;47.482;8.770;2023-01-25T06:37:21;97430.16;;;6.28;71.12
36386;BME280;24125;47.482;8.770;2023-01-25T06:39:54;97429.09;;;6.29;71.20
36386;BME280;24125;47.482;8.770;2023-01-25T06:42:27;97436.00;;;6.30;70.78
36386;BME280;24125;47.482;8.770;2023-01-25T06:45:00;97427.75;;;6.31;70.95
36386;BME280;24125;47.482;8.770;2023-01-25T06:47:34;97424.03;;;6.32;70.49
36386;BME280;24125;47.482;8.770;2023-01-25T06:50:09;97415.28;;;6.32;70.78
36386;BME280;24125;47.482;8.770;2023-01-25T06:52:42;97424.03;;;6.32;71.13
36386;BME280;24125;47.482;8.770;2023-01-25T06:55:15;97424.56;;;6.34;71.08
36386;BME280;24125;47.482;8.770;2023-01-25T06:57:48;97422.72;;;6.35;71.49
36386;BME280;24125;47.482;8.770;2023-01-25T07:00:21;97423.25;;;6.37;70.73
36386;BME280;24125;47.482;8.770;2023-01-25T07:02:55;97420.59;;;6.37;70.67
36386;BME280;24125;47.482;8.770;2023-01-25T07:05:28;97420.59;;;6.37;70.50
36386;BME280;24125;47.482;8.770;2023-01-25T07:08:01;97413.19;;;6.39;70.71
36386;BME280;24125;47.482;8.770;2023-01-25T07:10:34;97418.19;;;6.40;70.79
36386;BME280;24125;47.482;8.770;2023-01-25T07:13:07;97416.09;;;6.37;70.52
36386;BME280;24125;47.482;8.770;2023-01-25T07:15:40;97416.63;;;6.39;69.81
36386;BME280;24125;47.482;8.770;2023-01-25T07:18:14;97417.13;;;6.41;70.44
36386;BME280;24125;47.482;8.770;2023-01-25T07:20:47;97421.94;;;6.39;70.19
36386;BME280;24125;47.482;8.770;2023-01-25T07:23:20;97420.59;;;6.37;69.97
36386;BME280;24125;47.482;8.770;2023-01-25T07:25:53;97422.47;;;6.36;70.54
36386;BME280;24125;47.482;8.770;2023-01-25T07:28:30;97418.22;;;6.35;70.08
36386;BME280;24125;47.482;8.770;2023-01-25T07:31:04;97415.03;;;6.33;70.86
36386;BME280;24125;47.482;8.770;2023-01-25T07:33:39;97414.75;;;6.35;70.41
36386;BME280;24125;47.482;8.770;2023-01-25T07:36:12;97413.16;;;6.34;70.92
36386;BME280;24125;47.482;8.770;2023-01-25T07:38:45;97407.88;;;6.34;70.69
36386;BME280;24125;47.482;8.770;2023-01-25T07:41:18;97413.16;;;6.34;70.59
36386;BME280;24125;47.482;8.770;2023-01-25T07:43:51;97409.19;;;6.36;70.42
36386;BME280;24125;47.482;8.770;2023-01-25T07:46:24;97411.31;;;6.34;71.01
36386;BME280;24125;47.482;8.770;2023-01-25T07:48:58;97406.00;;;6.34;70.38
36386;BME280;24125;47.482;8.770;2023-01-25T07:51:31;97409.72;;;6.33;70.24
36386;BME280;24125;47.482;8.770;2023-01-25T07:54:04;97409.97;;;6.32;70.55
36386;BME280;24125;47.482;8.770;2023-01-25T07:56:37;97413.44;;;6.32;70.64
36386;BME280;24125;47.482;8.770;2023-01-25T07:59:11;97406.53;;;6.31;71.12
36386;BME280;24125;47.482;8.770;2023-01-25T08:01:44;97410.78;;;6.32;70.66
36386;BME280;24125;47.482;8.770;2023-01-25T08:04:19;97419.28;;;6.29;70.88
36386;BME280;24125;47.482;8.770;2023-01-25T08:06:52;97403.88;;;6.31;71.19
36386;BME280;24125;47.482;8.770;2023-01-25T08:09:25;97408.69;;;6.29;70.90
36386;BME280;24125;47.482;8.770;2023-01-25T08:11:58;97403.38;;;6.29;70.48
36386;BME280;24125;47.482;8.770;2023-01-25T08:14:31;97400.19;;;6.27;71.18
36386;BME280;24125;47.482;8.770;2023-01-25T08:17:04;97399.94;;;6.29;71.01
36386;BME280;24125;47.482;8.770;2023-01-25T08:19:39;97409.19;;;6.31;70.77
36386;BME280;24125;47.482;8.770;2023-01-25T08:22:12;97400.72;;;6.34;71.49
36386;BME280;24125;47.482;8.770;2023-01-25T08:24:45;97406.81;;;6.35;71.10
36386;BME280;24125;47.482;8.770;2023-01-25T08:27:18;97401.25;;;6.36;70.62
36386;BME280;24125;47.482;8.770;2023-01-25T08:29:51;97405.50;;;6.37;70.56
36386;BME280;24125;47.482;8.770;2023-01-25T08:32:25;97405.72;;;6.41;70.23
36386;BME280;24125;47.482;8.770;2023-01-25T08:34:59;97401.47;;;6.40;70.59
36386;BME280;24125;47.482;8.770;2023-01-25T08:37:32;97403.38;;;6.39;70.65
36386;BME280;24125;47.482;8.770;2023-01-25T08:40:06;97398.06;;;6.39;70.16
36386;BME280;24125;47.482;8.770;2023-01-25T08:42:39;97403.06;;;6.41;70.26
36386;BME280;24125;47.482;8.770;2023-01-25T08:45:13;97392.75;;;6.39;70.77
36386;BME280;24125;47.482;8.770;2023-01-25T08:47:46;97399.63;;;6.40;70.42
36386;BME280;24125;47.482;8.770;2023-01-25T08:50:20;97389.00;;;6.40;70.27
36386;BME280;24125;47.482;8.770;2023-01-25T08:52:53;97384.50;;;6.41;70.94
36386;BME280;24125;47.482;8.770;2023-01-25T08:55:26;97385.31;;;6.41;70.89
36386;BME280;24125;47.482;8.770;2023-01-25T08:57:59;97386.91;;;6.42;70.12
36386;BME280;24125;47.482;8.770;2023-01-25T09:00:32;97376.28;;;6.42;70.68
36386;BME280;24125;47.482;8.770;2023-01-25T09:03:05;97368.31;;;6.42;70.57
36386;BME280;24125;47.482;8.770;2023-01-25T09:05:40;97367.25;;;6.43;70.62
36386;BME280;24125;47.482;8.770;2023-01-25T09:08:13;97355.06;;;6.42;71.33
36386;BME280;24125;47.482;8.770;2023-01-25T09:10:46;97357.44;;;6.44;70.90
36386;BME280;24125;47.482;8.770;2023-01-25T09:13:19;97367.00;;;6.45;71.09
36386;BME280;24125;47.482;8.770;2023-01-25T09:15:51;97351.34;;;6.49;71.02
36386;BME280;24125;47.482;8.770;2023-01-25T09:18:30;97345.75;;;6.50;71.13
36386;BME280;24125;47.482;8.770;2023-01-25T09:21:07;97349.47;;;6.54;70.86
36386;BME280;24125;47.482;8.770;2023-01-25T09:23:40;97350.00;;;6.56;70.86
36386;BME280;24125;47.482;8.770;2023-01-25T09:26:28;97343.63;;;6.57;70.54
36386;BME280;24125;47.482;8.770;2023-01-25T09:29:02;97352.88;;;6.60;70.70
36386;BME280;24125;47.482;8.770;2023-01-25T09:31:37;97343.88;;;6.61;71.18
36386;BME280;24125;47.482;8.770;2023-01-25T09:34:13;97342.00;;;6.61;70.42
36386;BME280;24125;47.482;8.770;2023-01-25T09:36:48;97347.59;;;6.65;70.43
36386;BME280;24125;47.482;8.770;2023-01-25T09:39:21;97354.75;;;6.64;70.36
36386;BME280;24125;47.482;8.770;2023-01-25T09:47:57;97344.34;;;6.78;70.89
36386;BME280;24125;47.482;8.770;2023-01-25T09:50:35;97338.22;;;6.77;70.30
36386;BME280;24125;47.482;8.770;2023-01-25T09:53:37;97340.09;;;6.82;70.03
36386;BME280;24125;47.482;8.770;2023-01-25T09:56:13;97335.28;;;6.84;70.39
36386;BME280;24125;47.482;8.770;2023-01-25T09:58:51;97333.72;;;6.83;70.24
36386;BME280;24125;47.482;8.770;2023-01-25T10:01:27;97341.09;;;6.86;70.28
36386;BME280;24125;47.482;8.770;2023-01-25T10:04:13;97334.22;;;6.85;69.39
36386;BME280;24125;47.482;8.770;2023-01-25T10:06:49;97330.75;;;6.85;70.42
36386;BME280;24125;47.482;8.770;2023-01-25T10:09:38;97334.22;;;6.85;69.72
36386;BME280;24125;47.482;8.770;2023-01-25T10:12:14;97333.72;;;6.83;69.43
36386;BME280;24125;47.482;8.770;2023-01-25T10:14:47;97340.31;;;6.86;70.11
36386;BME280;24125;47.482;8.770;2023-01-25T10:17:26;97333.16;;;6.86;69.62
36386;BME280;24125;47.482;8.770;2023-01-25T10:20:20;97335.81;;;6.86;69.67
36386;BME280;24125;47.482;8.770;2023-01-25T10:23:13;97326.50;;;6.83;69.96
36386;BME280;24125;47.482;8.770;2023-01-25T10:25:56;97311.94;;;6.81;69.56
36386;BME280;24125;47.482;8.770;2023-01-25T10:28:39;97319.13;;;6.80;69.27
36386;BME280;24125;47.482;8.770;2023-01-25T10:31:16;97315.13;;;6.78;69.65
36386;BME280;24125;47.482;8.770;2023-01-25T10:33:51;97316.72;;;6.79;70.28
36386;BME280;24125;47.482;8.770;2023-01-25T10:36:28;97319.91;;;6.81;70.22
36386;BME280;24125;47.482;8.770;2023-01-25T10:39:03;97318.06;;;6.81;70.08
36386;BME280;24125;47.482;8.770;2023-01-25T10:41:41;97314.03;;;6.84;69.06
36386;BME280;24125;47.482;8.770;2023-01-25T10:44:18;97310.59;;;6.83;70.12
36386;BME280;24125;47.482;8.770;2023-01-25T10:46:58;97323.31;;;6.87;69.92
36386;BME280;24125;47.482;8.770;2023-01-25T10:49:39;97314.03;;;6.89;69.83
36386;BME280;24125;47.482;8.770;2023-01-25T10:52:15;97305.28;;;6.89;69.72
36386;BME280;24125;47.482;8.770;2023-01-25T10:55:06;97312.97;;;6.90;69.59
36386;BME280;24125;47.482;8.770;2023-01-25T10:57:48;97305.28;;;6.89;69.79
36386;BME280;24125;47.482;8.770;2023-01-25T11:00:23;97305.00;;;6.90;69.81
36386;BME280;24125;47.482;8.770;2023-01-25T11:03:00;97294.38;;;6.90;70.44
36386;BME280;24125;47.482;8.770;2023-01-25T11:05:35;97293.59;;;6.90;69.33
36386;BME280;24125;47.482;8.770;2023-01-25T11:08:21;97288.50;;;6.93;70.17
36386;BME280;24125;47.482;8.770;2023-01-25T11:10:55;97291.47;;;6.92;69.45
36386;BME280;24125;47.482;8.770;2023-01-25T11:13:31;97285.06;;;6.93;70.14
36386;BME280;24125;47.482;8.770;2023-01-25T11:16:23;97294.13;;;6.92;69.22
36386;BME280;24125;47.482;8.770;2023-01-25T11:19:00;97279.53;;;6.89;69.74
36386;BME280;24125;47.482;8.770;2023-01-25T11:21:34;97281.38;;;6.89;69.42
36386;BME280;24125;47.482;8.770;2023-01-25T11:24:16;97280.31;;;6.90;69.24
36386;BME280;24125;47.482;8.770;2023-01-25T11:26:49;97268.38;;;6.87;69.86
36386;BME280;24125;47.482;8.770;2023-01-25T11:29:23;97272.09;;;6.86;69.65
36386;BME280;24125;47.482;8.770;2023-01-25T11:31:57;97270.22;;;6.87;69.25
36386;BME280;24125;47.482;8.770;2023-01-25T11:34:30;97268.38;;;6.87;70.13
36386;BME280;24125;47.482;8.770;2023-01-25T11:37:17;97260.66;;;6.91;70.01
36386;BME280;24125;47.482;8.770;2023-01-25T11:39:58;97249.25;;;6.90;69.61
36386;BME280;24125;47.482;8.770;2023-01-25T11:42:41;97249.25;;;6.90;69.70
36386;BME280;24125;47.482;8.770;2023-01-25T11:45:40;97250.53;;;6.93;69.92
36386;BME280;24125;47.482;8.770;2023-01-25T11:48:28;97239.13;;;6.92;69.56
36386;BME280;24125;47.482;8.770;2023-01-25T11:51:05;97239.44;;;6.91;69.98
36386;BME280;24125;47.482;8.770;2023-01-25T11:53:52;97244.16;;;6.94;69.43
36386;BME280;24125;47.482;8.770;2023-01-25T11:56:38;97234.63;;;6.93;69.48
36386;BME280;24125;47.482;8.770;2023-01-25T11:59:29;97230.09;;;6.93;69.28
36386;BME280;24125;47.482;8.770;2023-01-25T12:02:18;97225.59;;;6.94;69.42
36386;BME280;24125;47.482;8.770;2023-01-25T12:05:13;97221.06;;;6.94;69.99
36386;BME280;24125;47.482;8.770;2023-01-25T12:08:03;97221.88;;;6.95;69.47
36386;BME280;24125;47.482;8.770;2023-01-25T12:10:50;97207.78;;;6.94;69.83
36386;BME280;24125;47.482;8.770;2023-01-25T12:13:36;97212.03;;;6.95;69.82
36386;BME280;24125;47.482;8.770;2023-01-25T12:16:22;97204.06;;;6.95;69.46
36386;BME280;24125;47.482;8.770;2023-01-25T12:19:12;97194.53;;;6.94;69.36
36386;BME280;24125;47.482;8.770;2023-01-25T12:22:03;97191.88;;;6.94;69.59
36386;BME280;24125;47.482;8.770;2023-01-25T12:24:44;97190.00;;;6.95;69.54
36386;BME280;24125;47.482;8.770;2023-01-25T12:27:30;97175.94;;;6.94;70.12
36386;BME280;24125;47.482;8.770;2023-01-25T12:30:13;97184.69;;;6.95;70.15
36386;BME280;24125;47.482;8.770;2023-01-25T12:32:50;97175.94;;;6.94;70.08
36386;BME280;24125;47.482;8.770;2023-01-25T12:35:37;97175.16;;;6.94;69.99
36386;BME280;24125;47.482;8.770;2023-01-25T12:38:14;97173.56;;;6.93;69.84
36386;BME280;24125;47.482;8.770;2023-01-25T12:40:53;97165.91;;;6.91;69.77
36386;BME280;24125;47.482;8.770;2023-01-25T12:43:31;97164.31;;;6.90;69.44
36386;BME280;24125;47.482;8.770;2023-01-25T12:46:13;97158.19;;;6.90;69.40
36386;BME280;24125;47.482;8.770;2023-01-25T12:48:49;97154.22;;;6.87;69.54
36386;BME280;24125;47.482;8.770;2023-01-25T12:51:35;97147.84;;;6.88;69.71
36386;BME280;24125;47.482;8.770;2023-01-25T12:54:15;97144.13;;;6.89;69.25
36386;BME280;24125;47.482;8.770;2023-01-25T12:56:57;97142.28;;;6.90;69.70
36386;BME280;24125;47.482;8.770;2023-01-25T12:59:41;97139.63;;;6.90;70.01
36386;BME280;24125;47.482;8.770;2023-01-25T13:02:25;97151.53;;;6.92;70.08
36386;BME280;24125;47.482;8.770;2023-01-25T13:05:07;97142.28;;;6.90;69.71
36386;BME280;24125;47.482;8.770;2023-01-25T13:07:52;97143.56;;;6.92;70.22
36386;BME280;24125;47.482;8.770;2023-01-25T13:10:32;97141.69;;;6.93;70.08
36386;BME280;24125;47.482;8.770;2023-01-25T13:13:20;97137.50;;;6.92;69.17
36386;BME280;24125;47.482;8.770;2023-01-25T13:15:54;97140.16;;;6.92;69.80
36386;BME280;24125;47.482;8.770;2023-01-25T13:18:37;97137.19;;;6.93;69.47
36386;BME280;24125;47.482;8.770;2023-01-25T13:21:40;97135.59;;;6.92;69.45
36386;BME280;24125;47.482;8.770;2023-01-25T13:24:22;97122.91;;;6.89;69.45
36386;BME280;24125;47.482;8.770;2023-01-25T13:27:21;97115.72;;;6.90;69.53
36386;BME280;24125;47.482;8.770;2023-01-25T13:30:23;97115.72;;;6.90;69.42
36386;BME280;24125;47.482;8.770;2023-01-25T13:33:01;97123.97;;;6.88;69.32
36386;BME280;24125;47.482;8.770;2023-01-25T13:35:38;97114.41;;;6.87;69.77
36386;BME280;24125;47.482;8.770;2023-01-25T13:38:27;97116.53;;;6.85;68.80
36386;BME280;24125;47.482;8.770;2023-01-25T13:41:14;97107.78;;;6.85;69.66
36386;BME280;24125;47.482;8.770;2023-01-25T13:43:52;97111.81;;;6.82;69.62
36386;BME280;24125;47.482;8.770;2023-01-25T13:46:26;97115.00;;;6.79;69.76
36386;BME280;24125;47.482;8.770;2023-01-25T13:49:03;97115.81;;;6.79;68.74
36386;BME280;24125;47.482;8.770;2023-01-25T13:51:39;97114.75;;;6.75;69.33
36386;BME280;24125;47.482;8.770;2023-01-25T13:54:15;97106.59;;;6.72;69.01
36386;BME280;24125;47.482;8.770;2023-01-25T13:57:02;97104.19;;;6.70;69.43
36386;BME280;24125;47.482;8.770;2023-01-25T13:59:35;97094.44;;;6.66;69.54
36386;BME280;24125;47.482;8.770;2023-01-25T14:02:13;97102.66;;;6.64;69.44
36386;BME280;24125;47.482;8.770;2023-01-25T14:04:49;97094.72;;;6.59;69.43